createdAt,value
2023-02-15T00:01:56.987Z,101951.75
2023-02-15T00:04:46.737Z,101956.06
2023-02-15T00:07:20.955Z,101953.53
2023-02-15T00:09:49.070Z,101952.59
2023-02-15T00:12:18.005Z,101952.59
2023-02-15T00:14:46.013Z,101956.06
2023-02-15T00:17:13.780Z,101943.91
2023-02-15T00:19:42.049Z,101936.13
2023-02-15T00:22:10.003Z,101933.56
2023-02-15T00:24:39.088Z,101935.38
2023-02-15T00:27:06.881Z,101931.00
2023-02-15T00:29:34.664Z,101930.09
2023-02-15T00:32:02.382Z,101940.56
2023-02-15T00:34:30.590Z,101939.66
2023-02-15T00:36:58.419Z,101936.97
2023-02-15T00:39:26.526Z,101934.34
2023-02-15T00:41:55.694Z,101935.19
2023-02-15T00:44:23.483Z,101936.88
2023-02-15T00:46:58.423Z,101930.00
2023-02-15T00:49:26.228Z,101927.41
2023-02-15T00:51:53.946Z,101919.63
2023-02-15T00:54:21.850Z,101922.28
2023-02-15T00:56:49.628Z,101932.81
2023-02-15T00:59:20.665Z,101933.72
2023-02-15T01:01:48.525Z,101942.47
2023-02-15T01:04:16.270Z,101929.34
2023-02-15T01:06:43.987Z,101933.75
2023-02-15T01:09:13.523Z,101938.19
2023-02-15T01:11:43.704Z,101933.75
2023-02-15T01:14:12.025Z,101928.44
2023-02-15T01:16:41.213Z,101931.91
2023-02-15T01:19:08.910Z,101931.91
2023-02-15T01:21:36.741Z,101929.28
2023-02-15T01:24:04.809Z,101928.34
2023-02-15T01:26:32.572Z,101916.94
2023-02-15T01:29:00.280Z,101918.69
2023-02-15T01:31:28.306Z,101926.56
2023-02-15T01:33:57.485Z,101922.16
2023-02-15T01:36:25.212Z,101922.22
2023-02-15T01:38:52.904Z,101914.34
2023-02-15T01:41:24.784Z,101918.66
2023-02-15T01:43:54.678Z,101911.56
2023-02-15T01:46:26.671Z,101910.69
2023-02-15T01:49:02.564Z,101907.19
2023-02-15T01:51:37.201Z,101906.38
2023-02-15T01:54:11.339Z,101900.28
2023-02-15T01:56:41.912Z,101899.34
2023-02-15T01:59:13.646Z,101894.09
2023-02-15T02:01:41.490Z,101895.13
2023-02-15T02:04:17.176Z,101895.91
2023-02-15T02:06:48.621Z,101897.72
2023-02-15T02:09:16.884Z,101897.66
2023-02-15T02:11:48.211Z,101892.28
2023-02-15T02:14:16.668Z,101892.19
2023-02-15T02:16:54.905Z,101886.81
2023-02-15T02:19:52.694Z,101885.84
2023-02-15T02:22:50.229Z,101879.75
2023-02-15T02:25:30.290Z,101878.91
2023-02-15T02:28:15.047Z,101877.22
2023-02-15T02:31:01.320Z,101872.25
2023-02-15T02:33:42.214Z,101874.91
2023-02-15T02:36:24.274Z,101870.44
2023-02-15T02:39:06.763Z,101870.31
2023-02-15T02:41:43.608Z,101867.69
2023-02-15T02:44:18.089Z,101868.63
2023-02-15T02:46:52.624Z,101863.41
2023-02-15T02:49:34.852Z,101861.72
2023-02-15T02:52:03.119Z,101853.88
2023-02-15T02:54:31.973Z,101855.69
2023-02-15T02:57:03.559Z,101846.94
2023-02-15T02:59:35.176Z,101854.69
2023-02-15T03:02:13.829Z,101852.78
2023-02-15T03:04:46.979Z,101851.84
2023-02-15T03:07:22.938Z,101851.91
2023-02-15T03:09:53.646Z,101848.47
2023-02-15T03:12:24.393Z,101857.22
2023-02-15T03:14:56.016Z,101860.75
2023-02-15T03:17:25.883Z,101862.47
2023-02-15T03:19:59.839Z,101862.41
2023-02-15T03:22:32.551Z,101864.13
2023-02-15T03:25:06.860Z,101850.97
2023-02-15T03:27:39.983Z,101857.06
2023-02-15T03:30:09.774Z,101851.00
2023-02-15T03:32:40.682Z,101851.03
2023-02-15T03:35:10.069Z,101848.56
2023-02-15T03:37:41.239Z,101845.13
2023-02-15T03:40:30.704Z,101842.63
2023-02-15T03:43:17.737Z,101844.38
2023-02-15T03:45:56.469Z,101839.91
2023-02-15T03:48:28.506Z,101839.91
2023-02-15T03:51:19.941Z,101844.31
2023-02-15T03:53:49.272Z,101839.91
2023-02-15T03:56:16.995Z,101843.44
2023-02-15T03:59:02.444Z,101834.66
2023-02-15T04:01:54.595Z,101837.38
2023-02-15T04:04:25.750Z,101833.78
2023-02-15T04:06:54.994Z,101834.63
2023-02-15T04:09:40.319Z,101842.56
2023-02-15T04:12:08.224Z,101828.69
2023-02-15T04:14:53.307Z,101832.25
2023-02-15T04:17:20.924Z,101833.09
2023-02-15T04:20:06.058Z,101831.34
2023-02-15T04:22:52.696Z,101842.69
2023-02-15T04:25:21.032Z,101841.81
2023-02-15T04:27:51.021Z,101841.91
2023-02-15T04:30:20.753Z,101843.59
2023-02-15T04:32:48.815Z,101838.38
2023-02-15T04:35:17.205Z,101838.41
2023-02-15T04:37:46.688Z,101834.91
2023-02-15T04:40:19.111Z,101838.38
2023-02-15T04:42:49.440Z,101833.09
2023-02-15T04:45:17.928Z,101835.75
2023-02-15T04:47:45.708Z,101832.19
2023-02-15T04:50:13.810Z,101827.03
2023-02-15T04:52:41.634Z,101827.03
2023-02-15T04:55:11.107Z,101825.34
2023-02-15T04:57:38.865Z,101819.97
2023-02-15T05:00:09.529Z,101823.41
2023-02-15T05:02:37.408Z,101820.78
2023-02-15T05:05:05.261Z,101814.78
2023-02-15T05:07:33.135Z,101822.69
2023-02-15T05:10:00.909Z,101819.06
2023-02-15T05:12:29.932Z,101816.41
2023-02-15T05:14:57.683Z,101817.25
2023-02-15T05:17:25.422Z,101812.84
2023-02-15T05:19:53.217Z,101817.22
2023-02-15T05:22:21.019Z,101816.28
2023-02-15T05:25:06.185Z,101815.47
2023-02-15T05:27:52.886Z,101819.81
2023-02-15T05:30:20.711Z,101811.97
2023-02-15T05:32:48.520Z,101812.84
2023-02-15T05:35:18.239Z,101816.41
2023-02-15T05:37:46.010Z,101815.59
2023-02-15T05:40:14.213Z,101820.84
2023-02-15T05:42:43.301Z,101813.03
2023-02-15T05:45:11.445Z,101823.59
2023-02-15T05:47:39.130Z,101811.41
2023-02-15T05:50:08.306Z,101807.00
2023-02-15T05:52:36.292Z,101815.72
2023-02-15T05:55:05.589Z,101814.84
2023-02-15T05:57:33.356Z,101809.53
2023-02-15T06:00:05.264Z,101812.09
2023-02-15T06:02:35.646Z,101812.91
2023-02-15T06:05:03.709Z,101815.59
2023-02-15T06:07:31.477Z,101814.84
2023-02-15T06:09:59.285Z,101816.63
2023-02-15T06:12:27.042Z,101821.91
2023-02-15T06:14:54.781Z,101831.56
2023-02-15T06:17:23.807Z,101828.94
2023-02-15T06:19:51.549Z,101831.53
2023-02-15T06:22:19.304Z,101825.41
2023-02-15T06:24:47.097Z,101835.94
2023-02-15T06:27:16.413Z,101831.47
2023-02-15T06:29:44.081Z,101833.38
2023-02-15T06:32:12.152Z,101838.56
2023-02-15T06:34:41.248Z,101846.34
2023-02-15T06:37:09.605Z,101845.44
2023-02-15T06:39:37.356Z,101854.97
2023-02-15T06:42:05.150Z,101850.53
2023-02-15T06:44:32.827Z,101859.25
2023-02-15T06:47:00.564Z,101851.38
2023-02-15T06:49:28.365Z,101849.72
2023-02-15T06:51:57.474Z,101855.94
2023-02-15T06:54:25.240Z,101854.22
2023-02-15T06:56:53.170Z,101856.00
2023-02-15T06:59:20.908Z,101850.78
2023-02-15T07:01:48.714Z,101849.09
2023-02-15T07:04:16.620Z,101856.13
2023-02-15T07:06:44.299Z,101859.66
2023-02-15T07:09:14.244Z,101855.28
2023-02-15T07:12:00.740Z,101846.50
2023-02-15T07:14:29.086Z,101858.66
2023-02-15T07:16:59.684Z,101861.28
2023-02-15T07:19:27.648Z,101849.84
2023-02-15T07:21:55.425Z,101855.09
2023-02-15T07:24:26.549Z,101844.69
2023-02-15T07:26:54.551Z,101856.06
2023-02-15T07:29:22.635Z,101843.81
2023-02-15T07:31:50.609Z,101849.84
2023-02-15T07:34:18.477Z,101845.44
2023-02-15T07:36:46.732Z,101854.13
2023-02-15T07:39:14.604Z,101849.63
2023-02-15T07:41:43.715Z,101853.13
2023-02-15T07:44:13.731Z,101856.66
2023-02-15T07:46:41.487Z,101841.91
2023-02-15T07:49:09.716Z,101845.28
2023-02-15T07:51:37.524Z,101846.09
2023-02-15T07:54:05.443Z,101840.00
2023-02-15T07:56:34.684Z,101841.59
2023-02-15T07:59:06.085Z,101843.44
2023-02-15T08:01:36.098Z,101840.78
2023-02-15T08:04:04.898Z,101843.41
2023-02-15T08:06:34.547Z,101839.03
2023-02-15T08:09:02.725Z,101832.16
2023-02-15T08:11:34.660Z,101846.09
2023-02-15T08:14:05.973Z,101841.75
2023-02-15T08:16:36.071Z,101837.31
2023-02-15T08:19:06.364Z,101833.69
2023-02-15T08:21:35.036Z,101838.84
2023-02-15T08:24:03.290Z,101831.78
2023-02-15T08:26:31.580Z,101830.75
2023-02-15T08:29:00.468Z,101832.44
2023-02-15T08:31:32.885Z,101831.59
2023-02-15T08:34:01.229Z,101821.97
2023-02-15T08:36:30.929Z,101825.50
2023-02-15T08:39:00.832Z,101816.88
2023-02-15T08:41:31.342Z,101827.50
2023-02-15T08:44:01.084Z,101820.44
2023-02-15T08:46:30.550Z,101816.22
2023-02-15T08:48:59.997Z,101816.28
2023-02-15T08:51:29.687Z,101819.75
2023-02-15T08:53:59.397Z,101818.03
2023-02-15T08:56:29.106Z,101815.41
2023-02-15T08:58:57.893Z,101824.16
2023-02-15T09:01:27.956Z,101811.03
2023-02-15T09:04:00.142Z,101815.31
2023-02-15T09:06:29.136Z,101813.50
2023-02-15T09:08:57.458Z,101805.53
2023-02-15T09:11:27.751Z,101802.03
2023-02-15T09:13:57.525Z,101803.88
2023-02-15T09:16:27.008Z,101798.69
2023-02-15T09:18:55.284Z,101797.88
2023-02-15T09:21:26.369Z,101801.44
2023-02-15T09:23:58.760Z,101786.59
2023-02-15T09:26:27.203Z,101780.50
2023-02-15T09:28:57.506Z,101784.06
2023-02-15T09:31:27.556Z,101784.88
2023-02-15T09:34:01.776Z,101790.16
2023-02-15T09:36:33.717Z,101791.97
2023-02-15T09:39:08.525Z,101797.97
2023-02-15T09:41:58.750Z,101792.63
2023-02-15T09:44:37.724Z,101797.88
2023-02-15T09:47:22.325Z,101800.66
2023-02-15T09:49:57.992Z,101795.38
2023-02-15T09:52:43.362Z,101795.34
2023-02-15T09:55:29.344Z,101791.16
2023-02-15T09:58:07.239Z,101795.41
2023-02-15T10:00:45.052Z,101796.34
2023-02-15T10:03:30.044Z,101803.28
2023-02-15T10:06:14.667Z,101806.84
2023-02-15T10:09:04.921Z,101811.97
2023-02-15T10:11:50.088Z,101813.75
2023-02-15T10:14:46.768Z,101815.53
2023-02-15T10:17:31.795Z,101818.13
2023-02-15T10:20:16.020Z,101819.84
2023-02-15T10:23:00.038Z,101823.34
2023-02-15T10:25:40.042Z,101813.66
2023-02-15T10:28:11.459Z,101818.84
2023-02-15T10:30:48.287Z,101810.09
2023-02-15T10:33:28.552Z,101796.94
2023-02-15T10:36:06.146Z,101793.28
2023-02-15T10:38:43.015Z,101794.19
2023-02-15T10:41:27.712Z,101794.97
2023-02-15T10:44:07.483Z,101798.41
2023-02-15T10:46:51.222Z,101796.53
2023-02-15T10:49:45.821Z,101800.97
2023-02-15T10:52:30.318Z,101794.84
2023-02-15T10:55:05.624Z,101796.53
2023-02-15T10:57:50.219Z,101792.94
2023-02-15T11:00:23.776Z,101796.25
2023-02-15T11:03:22.449Z,101792.75
2023-02-15T11:06:03.056Z,101772.66
2023-02-15T11:08:36.552Z,101776.22
2023-02-15T11:11:09.950Z,101779.63
2023-02-15T11:13:41.895Z,101777.03
2023-02-15T11:16:17.641Z,101779.56
2023-02-15T11:18:53.321Z,101768.03
2023-02-15T11:21:26.494Z,101768.13
2023-02-15T11:23:55.452Z,101764.56
2023-02-15T11:26:30.721Z,101764.53
2023-02-15T11:29:03.816Z,101757.59
2023-02-15T11:31:44.730Z,101755.72
2023-02-15T11:34:19.838Z,101766.06
2023-02-15T11:36:51.071Z,101750.28
2023-02-15T11:39:22.626Z,101762.63
2023-02-15T11:41:55.081Z,101756.47
2023-02-15T11:44:28.261Z,101748.63
2023-02-15T11:46:56.099Z,101745.97
2023-02-15T11:49:27.384Z,101744.16
2023-02-15T11:51:56.419Z,101739.75
2023-02-15T11:54:28.917Z,101738.09
2023-02-15T11:56:58.568Z,101736.31
2023-02-15T11:59:33.982Z,101735.31
2023-02-15T12:02:01.890Z,101735.19
2023-02-15T12:04:35.600Z,101730.66
2023-02-15T12:07:13.415Z,101719.16
2023-02-15T12:09:50.346Z,101721.69
2023-02-15T12:12:27.064Z,101728.75
2023-02-15T12:14:57.954Z,101716.41
2023-02-15T12:17:28.312Z,101713.47
2023-02-15T12:19:59.856Z,101712.59
2023-02-15T12:22:30.816Z,101704.69
2023-02-15T12:25:01.688Z,101702.91
2023-02-15T12:27:31.659Z,101698.44
2023-02-15T12:30:04.270Z,101697.56
2023-02-15T12:32:35.824Z,101695.84
2023-02-15T12:35:11.828Z,101695.00
2023-02-15T12:37:39.641Z,101688.09
2023-02-15T12:40:23.423Z,101689.94
2023-02-15T12:42:51.232Z,101684.59
2023-02-15T12:45:27.574Z,101687.22
2023-02-15T12:48:17.944Z,101683.72
2023-02-15T12:50:46.975Z,101687.13
2023-02-15T12:53:20.931Z,101681.91
2023-02-15T12:55:54.873Z,101679.25
2023-02-15T12:58:27.239Z,101679.28
2023-02-15T13:01:13.638Z,101670.50
2023-02-15T13:03:59.554Z,101671.44
2023-02-15T13:06:28.406Z,101678.47
2023-02-15T13:08:57.979Z,101674.88
2023-02-15T13:11:31.367Z,101665.19
2023-02-15T13:14:02.398Z,101667.81
2023-02-15T13:16:34.648Z,101668.72
2023-02-15T13:19:08.119Z,101652.66
2023-02-15T13:21:40.114Z,101657.03
2023-02-15T13:24:17.500Z,101652.44
2023-02-15T13:26:46.703Z,101650.63
2023-02-15T13:29:20.601Z,101639.13
2023-02-15T13:31:51.684Z,101641.75
2023-02-15T13:34:25.607Z,101634.78
2023-02-15T13:37:01.818Z,101633.97
2023-02-15T13:39:37.614Z,101637.47
2023-02-15T13:42:22.498Z,101628.03
2023-02-15T13:45:09.610Z,101620.91
2023-02-15T13:47:47.853Z,101626.28
2023-02-15T13:50:31.072Z,101623.63
2023-02-15T13:53:05.130Z,101623.47
2023-02-15T13:55:40.050Z,101619.91
2023-02-15T13:58:32.084Z,101626.09
2023-02-15T14:01:10.696Z,101625.16
2023-02-15T14:04:01.572Z,101626.06
2023-02-15T14:06:42.167Z,101619.88
2023-02-15T14:09:21.798Z,101619.22
2023-02-15T14:12:02.170Z,101615.72
2023-02-15T14:14:46.390Z,101617.47
2023-02-15T14:17:22.517Z,101611.34
2023-02-15T14:19:56.413Z,101608.75
2023-02-15T14:22:32.957Z,101599.88
2023-02-15T14:25:20.577Z,101598.94
2023-02-15T14:27:58.269Z,101602.31
2023-02-15T14:30:31.107Z,101602.16
2023-02-15T14:33:01.503Z,101601.22
2023-02-15T14:35:32.452Z,101596.81
2023-02-15T14:38:07.832Z,101600.41
2023-02-15T14:41:02.407Z,101592.50
2023-02-15T14:43:41.276Z,101591.72
2023-02-15T14:46:16.557Z,101593.59
2023-02-15T14:48:48.573Z,101595.31
2023-02-15T14:51:57.589Z,101596.06
2023-02-15T14:54:59.093Z,101593.59
2023-02-15T14:57:36.081Z,101590.09
2023-02-15T15:00:35.624Z,101583.03
2023-02-15T15:03:03.500Z,101583.88
2023-02-15T15:05:35.974Z,101583.97
2023-02-15T15:08:05.823Z,101589.34
2023-02-15T15:10:45.547Z,101591.16
2023-02-15T15:13:54.960Z,101579.72
2023-02-15T15:16:48.889Z,101576.97
2023-02-15T15:20:00.314Z,101583.03
2023-02-15T15:22:29.760Z,101583.81
2023-02-15T15:24:58.251Z,101584.84
2023-02-15T15:27:46.856Z,101582.16
2023-02-15T15:30:52.014Z,101588.97
2023-02-15T15:34:07.886Z,101587.97
2023-02-15T15:37:16.358Z,101583.59
2023-02-15T15:40:26.763Z,101584.44
2023-02-15T15:43:23.674Z,101581.81
2023-02-15T15:46:13.520Z,101582.66
2023-02-15T15:48:43.180Z,101585.34
2023-02-15T15:51:16.942Z,101589.56
2023-02-15T15:53:49.917Z,101586.84
2023-02-15T15:56:20.995Z,101592.97
2023-02-15T15:58:53.720Z,101593.00
2023-02-15T16:01:28.599Z,101588.66
2023-02-15T16:03:58.850Z,101593.94
2023-02-15T16:06:35.982Z,101592.13
2023-02-15T16:09:18.548Z,101590.41
2023-02-15T16:11:48.657Z,101589.53
2023-02-15T16:14:19.401Z,101587.88
2023-02-15T16:16:53.474Z,101581.84
2023-02-15T16:19:28.516Z,101587.97
2023-02-15T16:21:59.872Z,101584.50
2023-02-15T16:24:49.159Z,101581.22
2023-02-15T16:27:30.140Z,101584.63
2023-02-15T16:29:58.024Z,101583.72
2023-02-15T16:32:27.818Z,101582.00
2023-02-15T16:34:58.013Z,101578.63
2023-02-15T16:37:28.327Z,101582.88
2023-02-15T16:39:57.804Z,101589.09
2023-02-15T16:42:26.417Z,101594.31
2023-02-15T16:45:01.270Z,101591.72
2023-02-15T16:47:32.574Z,101586.59
2023-02-15T16:50:05.051Z,101583.97
2023-02-15T16:52:33.029Z,101588.25
2023-02-15T16:55:04.446Z,101596.13
2023-02-15T16:57:36.413Z,101599.59
2023-02-15T17:00:07.069Z,101588.19
2023-02-15T17:02:56.020Z,101584.84
2023-02-15T17:05:24.735Z,101585.78
2023-02-15T17:08:06.885Z,101585.88
2023-02-15T17:10:38.244Z,101592.09
2023-02-15T17:13:12.724Z,101588.56
2023-02-15T17:15:42.613Z,101591.19
2023-02-15T17:18:17.102Z,101587.72
2023-02-15T17:20:46.280Z,101587.84
2023-02-15T17:23:35.757Z,101588.91
2023-02-15T17:26:16.605Z,101577.47
2023-02-15T17:28:48.992Z,101582.63
2023-02-15T17:31:19.483Z,101597.50
2023-02-15T17:33:48.067Z,101608.03
2023-02-15T17:36:20.393Z,101596.56
2023-02-15T17:39:03.809Z,101590.31
2023-02-15T17:41:35.110Z,101595.53
2023-02-15T17:44:04.883Z,101605.19
2023-02-15T17:46:37.120Z,101601.72
2023-02-15T17:49:05.878Z,101600.88
2023-02-15T17:51:35.961Z,101603.53
2023-02-15T17:54:21.269Z,101600.97
2023-02-15T17:56:50.395Z,101593.81
2023-02-15T17:59:18.141Z,101585.22
2023-02-15T18:02:07.085Z,101594.81
2023-02-15T18:04:54.892Z,101591.38
2023-02-15T18:07:40.165Z,101594.09
2023-02-15T18:10:32.239Z,101587.03
2023-02-15T18:13:01.345Z,101595.00
2023-02-15T18:15:29.470Z,101581.81
2023-02-15T18:17:58.216Z,101584.38
2023-02-15T18:20:29.004Z,101586.22
2023-02-15T18:22:56.793Z,101577.47
2023-02-15T18:25:25.647Z,101579.31
2023-02-15T18:27:55.364Z,101587.22
2023-02-15T18:30:26.769Z,101594.34
2023-02-15T18:32:57.765Z,101590.81
2023-02-15T18:35:27.962Z,101593.50
2023-02-15T18:37:56.046Z,101599.53
2023-02-15T18:40:27.345Z,101597.88
2023-02-15T18:42:57.116Z,101598.06
2023-02-15T18:45:28.695Z,101595.31
2023-02-15T18:47:56.558Z,101588.28
2023-02-15T18:50:28.363Z,101585.72
2023-02-15T18:52:56.189Z,101583.00
2023-02-15T18:55:26.437Z,101581.22
2023-02-15T18:57:57.190Z,101581.22
2023-02-15T19:00:28.404Z,101577.72
2023-02-15T19:02:56.628Z,101567.19
2023-02-15T19:05:25.406Z,101569.75
2023-02-15T19:07:53.238Z,101578.50
2023-02-15T19:10:23.403Z,101567.97
2023-02-15T19:12:52.418Z,101567.88
2023-02-15T19:15:22.063Z,101569.66
2023-02-15T19:17:51.914Z,101573.13
2023-02-15T19:20:21.442Z,101563.53
2023-02-15T19:22:51.662Z,101570.47
2023-02-15T19:25:23.570Z,101568.66
2023-02-15T19:27:52.657Z,101565.94
2023-02-15T19:30:23.760Z,101571.16
2023-02-15T19:32:52.974Z,101562.44
2023-02-15T19:35:22.769Z,101556.31
2023-02-15T19:37:52.901Z,101553.72
2023-02-15T19:40:23.875Z,101556.31
2023-02-15T19:42:52.037Z,101553.78
2023-02-15T19:45:22.085Z,101553.88
2023-02-15T19:47:49.912Z,101556.44
2023-02-15T19:50:20.743Z,101557.34
2023-02-15T19:52:49.351Z,101559.25
2023-02-15T19:55:26.576Z,101561.84
2023-02-15T19:57:56.090Z,101557.44
2023-02-15T20:00:27.241Z,101554.84
2023-02-15T20:02:56.704Z,101564.38
2023-02-15T20:05:26.409Z,101563.56
2023-02-15T20:07:55.143Z,101567.13
2023-02-15T20:10:24.647Z,101566.19
2023-02-15T20:12:52.465Z,101559.25
2023-02-15T20:15:22.605Z,101566.25
2023-02-15T20:17:50.872Z,101571.63
2023-02-15T20:20:19.517Z,101561.09
2023-02-15T20:22:50.831Z,101568.25
2023-02-15T20:25:22.581Z,101561.25
2023-02-15T20:27:50.379Z,101564.75
2023-02-15T20:30:20.527Z,101575.31
2023-02-15T20:32:48.988Z,101569.16
2023-02-15T20:35:18.490Z,101570.16
2023-02-15T20:37:49.515Z,101575.47
2023-02-15T20:40:19.626Z,101587.69
2023-02-15T20:42:47.828Z,101584.31
2023-02-15T20:45:18.559Z,101587.00
2023-02-15T20:47:49.341Z,101585.50
2023-02-15T20:50:18.703Z,101579.59
2023-02-15T20:52:46.702Z,101589.28
2023-02-15T20:55:20.693Z,101591.22
2023-02-15T20:57:48.983Z,101593.88
2023-02-15T21:00:20.482Z,101587.63
2023-02-15T21:02:49.033Z,101586.78
2023-02-15T21:05:22.273Z,101587.66
2023-02-15T21:07:51.208Z,101593.84
2023-02-15T21:10:22.310Z,101593.84
2023-02-15T21:12:51.017Z,101590.31
2023-02-15T21:15:31.754Z,101593.03
2023-02-15T21:18:00.992Z,101595.69
2023-02-15T21:20:30.384Z,101592.19
2023-02-15T21:23:00.104Z,101597.44
2023-02-15T21:25:32.086Z,101593.00
2023-02-15T21:28:00.194Z,101597.38
2023-02-15T21:30:28.798Z,101601.06
2023-02-15T21:32:56.679Z,101600.19
2023-02-15T21:35:24.482Z,101594.06
2023-02-15T21:37:53.716Z,101595.09
2023-02-15T21:40:24.738Z,101600.41
2023-02-15T21:43:11.301Z,101598.66
2023-02-15T21:45:56.616Z,101605.84
2023-02-15T21:48:24.491Z,101605.72
2023-02-15T21:51:10.259Z,101597.88
2023-02-15T21:53:42.587Z,101598.81
2023-02-15T21:56:13.290Z,101596.50
2023-02-15T21:58:42.498Z,101590.53
2023-02-15T22:01:21.235Z,101592.25
2023-02-15T22:03:49.532Z,101600.09
2023-02-15T22:06:17.350Z,101598.50
2023-02-15T22:08:47.900Z,101591.59
2023-02-15T22:11:17.733Z,101595.19
2023-02-15T22:13:48.127Z,101603.84
2023-02-15T22:16:18.558Z,101602.94
2023-02-15T22:18:46.776Z,101605.66
2023-02-15T22:21:16.521Z,101597.66
2023-02-15T22:23:44.421Z,101597.78
2023-02-15T22:26:16.527Z,101586.34
2023-02-15T22:28:45.984Z,101588.09
2023-02-15T22:31:16.202Z,101586.28
2023-02-15T22:33:44.769Z,101585.50
2023-02-15T22:36:23.329Z,101593.31
2023-02-15T22:38:51.079Z,101588.22
2023-02-15T22:41:19.077Z,101583.03
2023-02-15T22:43:50.308Z,101591.06
2023-02-15T22:46:20.826Z,101580.53
2023-02-15T22:48:49.429Z,101572.63
2023-02-15T22:51:19.279Z,101576.06
2023-02-15T22:53:49.554Z,101574.44
2023-02-15T22:56:21.456Z,101576.25
2023-02-15T22:58:50.700Z,101570.16
2023-02-15T23:01:25.818Z,101571.84
2023-02-15T23:03:53.653Z,101573.66
2023-02-15T23:06:21.528Z,101573.66
2023-02-15T23:08:49.304Z,101571.03
2023-02-15T23:11:17.282Z,101566.69
2023-02-15T23:13:45.175Z,101567.66
2023-02-15T23:16:16.623Z,101579.16
2023-02-15T23:18:46.550Z,101572.19
2023-02-15T23:21:19.548Z,101567.19
2023-02-15T23:23:48.417Z,101556.81
2023-02-15T23:26:18.971Z,101560.41
2023-02-15T23:28:47.691Z,101566.66
2023-02-15T23:31:20.871Z,101572.19
2023-02-15T23:33:49.485Z,101579.22
2023-02-15T23:36:29.969Z,101584.56
2023-02-15T23:38:59.509Z,101581.34
2023-02-15T23:41:29.454Z,101569.91
2023-02-15T23:44:00.502Z,101564.72
2023-02-15T23:46:41.049Z,101561.09
2023-02-15T23:49:15.750Z,101575.84
2023-02-15T23:51:44.922Z,101570.66
2023-02-15T23:54:13.097Z,101577.81
2023-02-15T23:56:42.030Z,101577.09
2023-02-15T23:59:16.500Z,101578.88
